Time;durP1;ratioP1;P1;durP2;ratioP2;P2;SDS_P1;SDS_P2;PMS_P1;PMS_P2;Temp;Humidity;BMP_temperature;BMP_pressure;BME280_temperature;BME280_humidity;BME280_pressure;Samples;Min_cycle;Max_cycle;Signal;HPM_P1;HPM_P2
2024/03/20 00:02:06;;;;;;;4.30;3.72;;;7.80;86.70;;;;;;5041597;28;20076;-63
2024/03/20 00:04:32;;;;;;;4.50;3.42;;;7.80;86.70;;;;;;5045710;28;20044;-63
2024/03/20 00:06:58;;;;;;;6.22;3.40;;;7.80;86.70;;;;;;5042723;28;20128;-63
2024/03/20 00:09:24;;;;;;;3.75;3.13;;;7.80;86.70;;;;;;5043203;28;20021;-63
2024/03/20 00:11:49;;;;;;;4.45;3.28;;;7.80;86.60;;;;;;5045464;28;20512;-63
2024/03/20 00:14:16;;;;;;;4.18;3.08;;;7.80;86.60;;;;;;5043142;28;20059;-63
2024/03/20 00:16:41;;;;;;;4.38;2.97;;;7.80;86.60;;;;;;5039641;28;20025;-63
2024/03/20 00:19:08;;;;;;;4.47;3.25;;;7.80;86.50;;;;;;5044223;28;20025;-63
2024/03/20 00:21:36;;;;;;;5.53;3.10;;;7.70;86.30;;;;;;5041337;28;20033;-63
2024/03/20 00:24:02;;;;;;;3.65;3.10;;;7.70;86.20;;;;;;5041470;28;20072;-63
2024/03/20 00:26:28;;;;;;;4.05;3.30;;;7.70;86.20;;;;;;5039535;28;20053;-63
2024/03/20 00:28:53;;;;;;;5.80;3.40;;;7.80;86.30;;;;;;5046096;28;20059;-64
2024/03/20 00:31:19;;;;;;;7.20;3.53;;;7.60;86.20;;;;;;5038962;28;20055;-63
2024/03/20 00:33:45;;;;;;;4.35;3.63;;;7.60;86.20;;;;;;5038675;28;20038;-63
2024/03/20 00:36:10;;;;;;;4.60;3.70;;;7.50;86.20;;;;;;5041496;28;20728;-64
2024/03/20 00:38:36;;;;;;;4.75;3.80;;;7.50;86.30;;;;;;5040204;28;20136;-63
2024/03/20 00:41:04;;;;;;;5.13;3.90;;;7.50;86.40;;;;;;5040454;28;20492;-63
2024/03/20 00:43:30;;;;;;;6.97;4.07;;;7.50;86.40;;;;;;5044533;28;20052;-64
2024/03/20 00:45:55;;;;;;;7.75;4.32;;;7.50;86.60;;;;;;5043449;28;20048;-63
2024/03/20 00:48:21;;;;;;;6.10;3.75;;;7.40;86.70;;;;;;5042752;28;20124;-63
2024/03/20 00:50:46;;;;;;;5.10;4.03;;;7.40;86.80;;;;;;5044899;28;20400;-63
2024/03/20 00:53:12;;;;;;;5.18;4.10;;;7.40;86.80;;;;;;5042666;28;20101;-64
2024/03/20 00:55:38;;;;;;;6.68;4.10;;;7.40;86.80;;;;;;5044352;28;20076;-63
2024/03/20 00:58:05;;;;;;;7.82;3.67;;;7.30;86.90;;;;;;5043267;28;20334;-64
2024/03/20 01:00:30;;;;;;;6.40;4.28;;;7.30;86.90;;;;;;5044266;28;22598;-63
2024/03/20 01:02:56;;;;;;;5.70;3.67;;;7.30;86.90;;;;;;5047439;28;20349;-63
2024/03/20 01:05:22;;;;;;;6.68;4.03;;;7.30;86.80;;;;;;5039473;28;20025;-64
2024/03/20 01:07:47;;;;;;;6.22;4.18;;;7.30;86.90;;;;;;5045110;28;20112;-63
2024/03/20 01:10:13;;;;;;;7.13;4.03;;;7.20;86.70;;;;;;5045264;28;20037;-64
2024/03/20 01:12:38;;;;;;;6.18;4.20;;;7.20;86.90;;;;;;5046882;28;20557;-64
2024/03/20 01:15:04;;;;;;;6.15;4.15;;;7.20;86.90;;;;;;5044453;28;20060;-63
2024/03/20 01:17:33;;;;;;;5.90;4.40;;;7.20;86.90;;;;;;5040538;28;20033;-63
2024/03/20 01:20:00;;;;;;;4.63;4.13;;;7.20;86.90;;;;;;5044037;28;20475;-63
2024/03/20 01:22:26;;;;;;;5.05;4.20;;;7.20;86.80;;;;;;5038087;28;20036;-64
2024/03/20 01:24:51;;;;;;;7.22;4.38;;;7.20;86.70;;;;;;5044058;28;20033;-63
2024/03/20 01:27:17;;;;;;;4.95;3.90;;;7.20;86.50;;;;;;5045728;28;20791;-63
2024/03/20 01:29:42;;;;;;;5.30;3.70;;;7.20;86.40;;;;;;5048345;28;20048;-63
2024/03/20 01:32:08;;;;;;;4.82;4.13;;;7.10;86.20;;;;;;5045056;28;20099;-63
2024/03/20 01:34:33;;;;;;;5.05;4.20;;;7.10;86.20;;;;;;5045571;28;20094;-63
2024/03/20 01:36:59;;;;;;;4.75;4.13;;;7.10;86.20;;;;;;5046816;28;20451;-63
2024/03/20 01:39:25;;;;;;;4.78;4.13;;;7.10;86.20;;;;;;5043927;28;20025;-63
2024/03/20 01:41:50;;;;;;;8.70;4.25;;;7.00;86.00;;;;;;5048253;28;20090;-63
2024/03/20 01:44:17;;;;;;;4.80;3.83;;;7.00;86.10;;;;;;5041874;28;20030;-63
2024/03/20 01:46:42;;;;;;;6.30;3.97;;;6.90;86.10;;;;;;5048413;28;20043;-62
2024/03/20 01:49:09;;;;;;;5.25;4.18;;;6.90;87.00;;;;;;5047182;28;20024;-62
2024/03/20 01:51:37;;;;;;;4.93;4.32;;;6.90;86.20;;;;;;5043986;28;20037;-63
2024/03/20 01:54:04;;;;;;;5.90;5.00;;;6.90;86.30;;;;;;5047686;28;20048;-63
2024/03/20 01:56:32;;;;;;;7.45;5.03;;;6.80;86.30;;;;;;5043381;28;20036;-63
2024/03/20 01:58:57;;;;;;;7.35;5.00;;;6.80;86.60;;;;;;5044153;28;20433;-63
2024/03/20 02:01:23;;;;;;;7.68;5.50;;;6.70;86.60;;;;;;5046090;28;20029;-63
2024/03/20 02:03:49;;;;;;;6.88;5.07;;;6.70;86.90;;;;;;5046170;28;20056;-62
2024/03/20 02:06:23;;;;;;;6.97;5.05;;;6.70;87.10;;;;;;5048312;28;20389;-63
2024/03/20 02:08:50;;;;;;;5.97;4.80;;;6.60;87.30;;;;;;5037510;28;20033;-63
2024/03/20 02:11:16;;;;;;;6.32;4.95;;;6.60;87.20;;;;;;5041897;28;20038;-62
2024/03/20 02:13:50;;;;;;;5.70;4.80;;;6.60;87.20;;;;;;5045674;28;20049;-61
2024/03/20 02:16:17;;;;;;;8.52;4.80;;;6.60;87.30;;;;;;5041955;28;20493;-62
2024/03/20 02:18:43;;;;;;;10.93;5.78;;;6.60;87.20;;;;;;5039696;28;20048;-63
2024/03/20 02:21:10;;;;;;;11.52;6.53;;;6.60;87.30;;;;;;5043451;28;20163;-63
2024/03/20 02:23:36;;;;;;;30.25;7.68;;;6.60;87.50;;;;;;5042938;28;20786;-61
2024/03/20 02:26:02;;;;;;;42.15;8.38;;;6.60;87.70;;;;;;5050255;28;20048;-62
2024/03/20 02:28:28;;;;;;;76.78;9.48;;;6.60;88.80;;;;;;5041945;28;20413;-61
2024/03/20 02:30:54;;;;;;;28.27;9.10;;;6.50;88.00;;;;;;5038417;28;20041;-62
2024/03/20 02:33:19;;;;;;;60.58;8.38;;;6.60;88.20;;;;;;5044527;28;20053;-63
2024/03/20 02:35:45;;;;;;;14.77;7.80;;;6.50;88.20;;;;;;5041271;28;20052;-63
2024/03/20 02:38:10;;;;;;;13.23;8.10;;;6.50;88.20;;;;;;5040020;28;20500;-62
2024/03/20 02:40:36;;;;;;;10.40;6.78;;;6.50;88.00;;;;;;5042713;28;20045;-63
2024/03/20 02:43:02;;;;;;;10.07;6.70;;;6.50;87.90;;;;;;5042195;28;20040;-62
2024/03/20 02:45:28;;;;;;;8.82;6.15;;;6.50;87.80;;;;;;5045968;28;20451;-63
2024/03/20 02:47:53;;;;;;;7.35;5.78;;;6.50;87.70;;;;;;5038247;28;20033;-62
2024/03/20 02:50:19;;;;;;;7.15;5.82;;;6.50;87.80;;;;;;5042571;28;20025;-63
2024/03/20 02:52:44;;;;;;;7.22;5.10;;;6.50;87.70;;;;;;5038464;28;20112;-62
2024/03/20 02:55:10;;;;;;;8.63;5.80;;;6.50;87.70;;;;;;5041620;28;20041;-63
2024/03/20 02:57:35;;;;;;;6.75;5.45;;;6.40;87.50;;;;;;5041591;28;20408;-63
2024/03/20 03:00:02;;;;;;;7.30;5.53;;;6.40;87.40;;;;;;5038628;28;20127;-63
2024/03/20 03:02:28;;;;;;;7.72;5.40;;;6.40;87.20;;;;;;5041099;28;20029;-63
2024/03/20 03:04:53;;;;;;;7.57;5.63;;;6.40;87.20;;;;;;5042341;28;20135;-63
2024/03/20 03:07:19;;;;;;;7.53;5.65;;;6.40;87.10;;;;;;5038796;28;20033;-63
2024/03/20 03:09:45;;;;;;;7.43;5.32;;;6.40;87.00;;;;;;5035870;28;20435;-63
2024/03/20 03:12:10;;;;;;;11.45;5.90;;;6.40;87.00;;;;;;5046112;28;20091;-63
2024/03/20 03:14:36;;;;;;;13.10;6.45;;;6.40;87.00;;;;;;5045287;28;20037;-62
2024/03/20 03:17:01;;;;;;;15.93;6.22;;;6.40;87.00;;;;;;5038862;28;20041;-63
2024/03/20 03:19:27;;;;;;;15.88;6.72;;;6.40;87.10;;;;;;5038892;28;20206;-63
2024/03/20 03:21:53;;;;;;;9.20;6.25;;;6.40;86.90;;;;;;5041894;28;20413;-63
2024/03/20 03:24:18;;;;;;;9.73;5.53;;;6.40;86.80;;;;;;5043713;28;20037;-63
2024/03/20 03:26:44;;;;;;;9.27;6.88;;;6.40;86.80;;;;;;5045254;28;20427;-61
2024/03/20 03:29:10;;;;;;;19.38;6.38;;;6.40;86.90;;;;;;5048330;28;20116;-63
2024/03/20 03:31:36;;;;;;;7.43;6.20;;;6.40;86.80;;;;;;5047304;28;20032;-62
2024/03/20 03:34:02;;;;;;;7.97;5.57;;;6.50;87.00;;;;;;5043397;28;20048;-62
2024/03/20 03:36:28;;;;;;;6.03;4.53;;;6.50;87.00;;;;;;5044539;28;20031;-63
2024/03/20 03:38:54;;;;;;;5.35;3.67;;;6.50;87.00;;;;;;5046338;28;20025;-63
2024/03/20 03:41:20;;;;;;;5.63;3.38;;;6.50;87.00;;;;;;5043373;28;20033;-63
2024/03/20 03:43:46;;;;;;;4.60;3.75;;;6.50;87.00;;;;;;5049019;28;20037;-62
2024/03/20 03:46:12;;;;;;;9.07;3.08;;;6.50;87.00;;;;;;5048735;28;20041;-63
2024/03/20 03:48:37;;;;;;;6.47;3.10;;;6.50;87.00;;;;;;5045561;28;20451;-63
2024/03/20 03:51:03;;;;;;;4.05;3.38;;;6.50;86.90;;;;;;5043651;28;20047;-62
2024/03/20 03:53:29;;;;;;;4.15;3.30;;;6.50;86.90;;;;;;5040321;28;20307;-61
2024/03/20 03:55:55;;;;;;;7.55;3.80;;;6.50;86.90;;;;;;5044049;28;20615;-62
2024/03/20 03:58:21;;;;;;;10.00;4.78;;;6.50;86.90;;;;;;5044239;28;20067;-62
2024/03/20 04:00:46;;;;;;;7.30;4.07;;;6.50;87.00;;;;;;5043670;28;20033;-63
2024/03/20 04:03:12;;;;;;;5.68;4.75;;;6.50;87.00;;;;;;5046893;28;20063;-62
2024/03/20 04:05:37;;;;;;;6.10;4.28;;;6.50;87.00;;;;;;5045027;28;20028;-63
2024/03/20 04:08:03;;;;;;;4.55;3.97;;;6.50;87.00;;;;;;5043759;28;20128;-63
2024/03/20 04:10:29;;;;;;;13.48;4.65;;;6.50;86.90;;;;;;5045243;28;20033;-61
2024/03/20 04:12:55;;;;;;;32.83;5.50;;;6.60;87.00;;;;;;5043119;28;20564;-62
2024/03/20 04:15:20;;;;;;;18.45;6.13;;;6.60;87.10;;;;;;5046395;28;20044;-62
2024/03/20 04:17:46;;;;;;;57.28;6.55;;;6.60;87.20;;;;;;5038890;28;20033;-61
2024/03/20 04:20:11;;;;;;;55.47;6.38;;;6.60;87.20;;;;;;5042476;28;20064;-62
2024/03/20 04:22:38;;;;;;;31.55;5.85;;;6.60;87.40;;;;;;5040991;28;20041;-63
2024/03/20 04:25:05;;;;;;;39.63;7.00;;;6.60;87.50;;;;;;5043305;28;20094;-63
2024/03/20 04:27:37;;;;;;;34.88;6.65;;;6.60;87.60;;;;;;5043864;28;20033;-62
2024/03/20 04:30:12;;;;;;;37.90;6.32;;;6.60;87.70;;;;;;5042243;28;20025;-61
2024/03/20 04:32:38;;;;;;;51.30;6.47;;;6.60;88.00;;;;;;5039291;28;20037;-60
2024/03/20 04:35:04;;;;;;;7.10;5.93;;;6.60;87.90;;;;;;5041774;28;20511;-61
2024/03/20 04:37:29;;;;;;;32.22;6.50;;;6.60;87.90;;;;;;5044881;28;20170;-62
2024/03/20 04:39:55;;;;;;;54.53;6.07;;;6.70;88.10;;;;;;5038873;28;20035;-63
2024/03/20 04:42:20;;;;;;;59.90;6.18;;;6.60;87.90;;;;;;5040704;28;20041;-63
2024/03/20 04:44:46;;;;;;;34.97;6.25;;;6.70;87.70;;;;;;5046808;28;20033;-63
2024/03/20 04:47:12;;;;;;;49.58;5.85;;;6.60;87.40;;;;;;5042830;28;20171;-63
2024/03/20 04:49:38;;;;;;;52.70;5.57;;;6.60;87.20;;;;;;5046126;28;20937;-63
2024/03/20 04:52:04;;;;;;;73.18;6.18;;;6.60;87.20;;;;;;5045783;28;20108;-63
2024/03/20 04:54:29;;;;;;;50.05;7.32;;;6.60;87.30;;;;;;5040917;28;20041;-62
2024/03/20 04:56:55;;;;;;;28.60;5.80;;;6.50;87.50;;;;;;5036657;28;20496;-63
2024/03/20 04:59:20;;;;;;;43.78;6.93;;;6.50;87.80;;;;;;5043752;28;20135;-63
2024/03/20 05:01:46;;;;;;;33.38;5.43;;;6.40;88.00;;;;;;5040918;28;20038;-62
2024/03/20 05:04:12;;;;;;;41.15;6.55;;;6.50;88.20;;;;;;5041939;28;20040;-61
2024/03/20 05:06:37;;;;;;;53.63;6.78;;;6.50;88.20;;;;;;5047271;28;20029;-62
2024/03/20 05:09:04;;;;;;;36.78;8.40;;;6.40;88.10;;;;;;5036475;28;20029;-62
2024/03/20 05:11:30;;;;;;;48.55;11.07;;;6.50;88.20;;;;;;5043958;28;20029;-63
2024/03/20 05:13:55;;;;;;;43.50;12.07;;;6.40;88.40;;;;;;5036194;28;20524;-62
2024/03/20 05:16:21;;;;;;;61.28;16.67;;;6.50;88.70;;;;;;5044815;28;20511;-63
2024/03/20 05:18:46;;;;;;;28.85;12.23;;;6.50;88.90;;;;;;5036957;28;20028;-62
2024/03/20 05:21:12;;;;;;;39.45;10.85;;;6.50;89.10;;;;;;5043512;28;20037;-63
2024/03/20 05:23:38;;;;;;;25.35;10.02;;;6.50;89.10;;;;;;5044382;28;20036;-63
2024/03/20 05:26:03;;;;;;;18.67;10.07;;;6.50;89.10;;;;;;5041302;28;20643;-62
2024/03/20 05:28:29;;;;;;;28.38;11.02;;;6.60;89.10;;;;;;5046014;28;20029;-62
2024/03/20 05:30:54;;;;;;;32.17;10.57;;;6.60;89.10;;;;;;5042786;28;20037;-62
2024/03/20 05:33:20;;;;;;;33.97;11.02;;;6.60;89.10;;;;;;5039009;28;20123;-62
2024/03/20 05:35:45;;;;;;;35.90;10.93;;;6.60;88.90;;;;;;5042058;28;20533;-63
2024/03/20 05:38:14;;;;;;;35.42;10.05;;;6.70;88.80;;;;;;5045737;28;20041;-63
2024/03/20 05:40:40;;;;;;;34.85;8.23;;;6.70;88.80;;;;;;5047385;28;20128;-63
2024/03/20 05:43:06;;;;;;;26.08;8.30;;;6.70;88.90;;;;;;5045965;28;20084;-63
2024/03/20 05:45:31;;;;;;;38.85;8.15;;;6.70;89.10;;;;;;5050888;28;20064;-63
2024/03/20 05:47:57;;;;;;;58.58;8.40;;;6.70;89.30;;;;;;5031885;28;20112;-62
2024/03/20 05:50:22;;;;;;;26.15;8.68;;;6.70;89.20;;;;;;5048902;28;20071;-62
2024/03/20 05:52:48;;;;;;;25.25;8.32;;;6.80;89.40;;;;;;5048407;28;20032;-63
2024/03/20 05:55:15;;;;;;;15.80;8.15;;;6.80;89.40;;;;;;5045684;28;20031;-63
2024/03/20 05:57:40;;;;;;;23.67;9.40;;;6.80;89.50;;;;;;5044136;28;20086;-63
2024/03/20 06:00:15;;;;;;;20.02;8.55;;;6.80;89.50;;;;;;5041582;28;20108;-63
2024/03/20 06:02:41;;;;;;;67.18;9.30;;;6.80;89.50;;;;;;5040953;28;20046;-62
2024/03/20 06:05:07;;;;;;;28.55;8.02;;;6.80;89.30;;;;;;5043178;28;20029;-62
2024/03/20 06:07:33;;;;;;;32.95;8.90;;;6.80;89.20;;;;;;5047339;28;20504;-62
2024/03/20 06:09:59;;;;;;;20.20;8.48;;;6.80;89.00;;;;;;5044515;28;20036;-63
2024/03/20 06:12:24;;;;;;;47.25;9.40;;;6.80;89.00;;;;;;5039674;28;20053;-61
2024/03/20 06:14:52;;;;;;;39.28;8.32;;;6.80;88.90;;;;;;5041638;28;20034;-62
2024/03/20 06:17:18;;;;;;;75.28;9.30;;;6.80;89.00;;;;;;5041173;28;20072;-63
2024/03/20 06:19:44;;;;;;;53.83;9.68;;;6.80;89.20;;;;;;5046492;28;20040;-62
2024/03/20 06:22:09;;;;;;;61.33;9.02;;;6.80;89.40;;;;;;5042527;28;20041;-62
2024/03/20 06:24:37;;;;;;;50.17;9.32;;;6.80;89.70;;;;;;5050726;28;20044;-62
2024/03/20 06:27:03;;;;;;;36.83;9.77;;;6.80;90.00;;;;;;5041717;28;20053;-60
2024/03/20 06:29:29;;;;;;;27.13;10.38;;;6.80;90.00;;;;;;5039199;28;20079;-61
2024/03/20 06:31:55;;;;;;;36.78;9.70;;;6.80;90.10;;;;;;5043738;28;20138;-63
2024/03/20 06:34:20;;;;;;;62.97;10.88;;;6.80;90.20;;;;;;5045618;28;20036;-63
2024/03/20 06:36:46;;;;;;;39.90;10.10;;;6.90;90.20;;;;;;5043413;28;20032;-63
2024/03/20 06:39:11;;;;;;;53.38;10.98;;;6.90;90.20;;;;;;5045163;28;20029;-62
2024/03/20 06:41:37;;;;;;;45.70;9.52;;;7.00;90.20;;;;;;5046618;28;20129;-61
2024/03/20 06:44:07;;;;;;;72.50;9.93;;;7.00;90.20;;;;;;5039448;28;20538;-62
2024/03/20 06:46:32;;;;;;;42.50;8.50;;;7.00;90.20;;;;;;5051747;28;20037;-62
2024/03/20 06:48:58;;;;;;;43.97;8.95;;;7.00;90.10;;;;;;5044402;28;20040;-61
2024/03/20 06:51:25;;;;;;;34.92;8.82;;;7.00;90.10;;;;;;5045679;28;20045;-60
2024/03/20 06:53:51;;;;;;;23.10;9.10;;;7.10;90.10;;;;;;5047438;28;20037;-60
2024/03/20 06:56:19;;;;;;;15.88;8.45;;;7.00;90.00;;;;;;5047487;28;20082;-61
2024/03/20 06:58:45;;;;;;;25.98;8.85;;;7.10;90.10;;;;;;5042107;28;20034;-62
2024/03/20 07:01:11;;;;;;;47.40;9.32;;;7.10;90.20;;;;;;5042942;28;20094;-61
2024/03/20 07:03:37;;;;;;;25.92;8.80;;;7.10;90.30;;;;;;5049861;28;20060;-62
2024/03/20 07:06:03;;;;;;;34.05;8.65;;;7.10;90.30;;;;;;5048001;28;20107;-62
2024/03/20 07:08:30;;;;;;;21.85;9.27;;;7.20;90.30;;;;;;5042549;28;20043;-63
2024/03/20 07:10:56;;;;;;;29.63;9.07;;;7.20;90.30;;;;;;5047894;28;20033;-62
2024/03/20 07:13:22;;;;;;;19.58;9.57;;;7.20;90.40;;;;;;5049748;28;20555;-62
2024/03/20 07:15:47;;;;;;;22.95;9.70;;;7.30;90.50;;;;;;5048182;28;20132;-62
2024/03/20 07:18:13;;;;;;;16.65;9.65;;;7.40;90.60;;;;;;5048061;28;20322;-62
2024/03/20 07:20:39;;;;;;;29.25;11.07;;;7.40;90.60;;;;;;5051177;28;20044;-61
2024/03/20 07:23:05;;;;;;;34.42;10.10;;;7.50;90.80;;;;;;5051823;28;20044;-61
2024/03/20 07:25:31;;;;;;;21.63;10.18;;;7.50;90.80;;;;;;5049276;28;20033;-62
2024/03/20 07:27:57;;;;;;;18.30;9.85;;;7.60;90.80;;;;;;5052201;28;20033;-61
2024/03/20 07:30:23;;;;;;;27.27;10.82;;;7.60;90.80;;;;;;5051021;28;20037;-61
2024/03/20 07:32:49;;;;;;;32.05;11.65;;;7.60;90.80;;;;;;5049650;28;20029;-62
2024/03/20 07:35:15;;;;;;;32.28;12.98;;;7.70;90.80;;;;;;5046302;28;20406;-60
2024/03/20 07:37:42;;;;;;;27.75;12.98;;;7.80;90.90;;;;;;5048160;28;20025;-62
2024/03/20 07:40:08;;;;;;;24.10;11.43;;;7.80;90.90;;;;;;5049685;28;20033;-60
2024/03/20 07:42:34;;;;;;;25.88;10.73;;;7.90;90.90;;;;;;5049008;28;20044;-62
2024/03/20 07:45:00;;;;;;;34.10;10.18;;;7.90;90.90;;;;;;5044414;28;20405;-63
2024/03/20 07:47:26;;;;;;;23.27;9.70;;;8.00;90.80;;;;;;5044271;28;20081;-61
2024/03/20 07:49:52;;;;;;;14.77;9.90;;;8.00;90.80;;;;;;5045088;28;20029;-61
2024/03/20 07:52:18;;;;;;;19.25;9.85;;;8.00;90.70;;;;;;5054827;28;20048;-62
2024/03/20 07:54:44;;;;;;;34.47;9.90;;;8.10;90.70;;;;;;5048033;28;20033;-62
2024/03/20 07:57:09;;;;;;;21.58;10.05;;;8.10;90.60;;;;;;5049453;28;20086;-63
2024/03/20 07:59:36;;;;;;;34.42;9.73;;;8.10;90.70;;;;;;5036377;28;20052;-61
2024/03/20 08:02:02;;;;;;;22.88;9.27;;;8.10;90.60;;;;;;5045274;28;20029;-62
2024/03/20 08:04:27;;;;;;;21.67;9.50;;;8.10;90.70;;;;;;5048180;28;20021;-63
2024/03/20 08:06:54;;;;;;;23.65;10.63;;;8.10;90.70;;;;;;5041902;28;20037;-63
2024/03/20 08:09:19;;;;;;;18.23;10.05;;;8.20;90.90;;;;;;5046580;28;20029;-63
2024/03/20 08:11:45;;;;;;;15.75;10.55;;;8.20;90.90;;;;;;5046103;28;20412;-62
2024/03/20 08:14:13;;;;;;;14.75;11.40;;;8.30;91.00;;;;;;5050411;28;20040;-63
2024/03/20 08:16:39;;;;;;;15.98;11.55;;;8.30;91.10;;;;;;5048700;28;20029;-63
2024/03/20 08:19:05;;;;;;;19.95;10.73;;;8.40;91.00;;;;;;5049044;28;20248;-62
2024/03/20 08:21:31;;;;;;;24.48;11.10;;;8.50;91.00;;;;;;5048449;28;20124;-63
2024/03/20 08:23:57;;;;;;;18.83;11.15;;;8.50;91.00;;;;;;5042713;28;20088;-63
2024/03/20 08:26:23;;;;;;;13.35;11.00;;;8.60;91.00;;;;;;5052394;28;20716;-63
2024/03/20 08:28:48;;;;;;;14.52;9.45;;;8.70;90.90;;;;;;5049386;28;20136;-63
2024/03/20 08:31:14;;;;;;;12.02;10.00;;;8.70;90.90;;;;;;5049225;28;20051;-62
2024/03/20 08:33:40;;;;;;;12.55;10.43;;;8.80;90.90;;;;;;5048317;28;20032;-63
2024/03/20 08:36:08;;;;;;;12.00;9.80;;;8.80;91.00;;;;;;5038581;28;20275;-62
2024/03/20 08:38:35;;;;;;;15.95;10.50;;;8.90;91.00;;;;;;5052018;28;20116;-63
2024/03/20 08:41:02;;;;;;;11.20;9.48;;;9.00;91.10;;;;;;5048135;28;20033;-62
2024/03/20 08:43:28;;;;;;;12.25;10.00;;;9.00;91.00;;;;;;5048039;28;20033;-62
2024/03/20 08:45:53;;;;;;;13.77;10.15;;;9.10;90.90;;;;;;5046941;28;20123;-61
2024/03/20 08:48:19;;;;;;;12.65;10.35;;;9.20;90.90;;;;;;5042709;28;20040;-63
2024/03/20 08:50:45;;;;;;;12.60;10.30;;;9.20;90.90;;;;;;5045583;28;20412;-61
2024/03/20 08:53:11;;;;;;;12.48;9.93;;;9.30;91.00;;;;;;5048782;28;20029;-61
2024/03/20 08:55:37;;;;;;;13.15;10.35;;;9.40;91.10;;;;;;5046134;28;20447;-60
2024/03/20 08:58:03;;;;;;;12.50;10.27;;;9.40;91.20;;;;;;5047129;28;20067;-62
2024/03/20 09:00:29;;;;;;;12.40;9.93;;;9.50;91.30;;;;;;5046918;28;20083;-63
2024/03/20 09:02:55;;;;;;;10.95;9.63;;;9.50;91.30;;;;;;5047211;28;20025;-61
2024/03/20 09:05:21;;;;;;;9.93;8.65;;;9.60;91.30;;;;;;5049394;28;20496;-61
2024/03/20 09:07:47;;;;;;;9.73;8.70;;;9.60;91.20;;;;;;5046939;28;21541;-63
2024/03/20 09:10:12;;;;;;;10.20;8.40;;;9.70;91.20;;;;;;5050251;28;20139;-61
2024/03/20 09:12:38;;;;;;;9.80;8.38;;;9.80;91.20;;;;;;5045729;28;20080;-61
2024/03/20 09:15:07;;;;;;;9.38;7.90;;;9.90;91.20;;;;;;5048080;28;20036;-63
2024/03/20 09:17:33;;;;;;;9.65;8.65;;;10.00;91.20;;;;;;5047849;28;20686;-62
2024/03/20 09:19:58;;;;;;;9.40;8.07;;;10.10;91.20;;;;;;5046901;28;20140;-63
2024/03/20 09:22:24;;;;;;;9.30;7.90;;;10.20;91.20;;;;;;5045824;28;20037;-61
2024/03/20 09:24:51;;;;;;;9.52;7.88;;;10.30;91.10;;;;;;5045458;28;20032;-61
2024/03/20 09:27:16;;;;;;;9.95;8.00;;;10.40;91.00;;;;;;5047613;28;20462;-62
2024/03/20 09:29:42;;;;;;;10.65;8.93;;;10.50;90.80;;;;;;5047763;28;20246;-62
2024/03/20 09:32:08;;;;;;;10.35;8.27;;;10.60;90.80;;;;;;5047883;28;20029;-62
2024/03/20 09:34:35;;;;;;;9.82;7.82;;;10.70;90.80;;;;;;5051882;28;20488;-63
2024/03/20 09:37:05;;;;;;;9.70;8.43;;;10.70;90.80;;;;;;5046046;28;20036;-62
2024/03/20 09:39:31;;;;;;;9.50;7.93;;;10.80;90.90;;;;;;5049001;28;20033;-63
2024/03/20 09:41:57;;;;;;;11.15;9.02;;;11.00;90.90;;;;;;5049098;28;20154;-63
2024/03/20 09:44:23;;;;;;;9.70;8.32;;;11.10;91.20;;;;;;5048668;28;20029;-62
2024/03/20 09:46:53;;;;;;;10.38;8.80;;;11.20;90.90;;;;;;5048263;28;20033;-62
2024/03/20 09:49:21;;;;;;;10.80;9.05;;;11.30;90.90;;;;;;5052678;28;20044;-63
2024/03/20 09:51:48;;;;;;;9.90;8.05;;;11.40;90.80;;;;;;5044894;28;20432;-63
2024/03/20 09:54:14;;;;;;;9.32;8.10;;;11.50;90.70;;;;;;5045200;28;20504;-63
2024/03/20 09:56:43;;;;;;;10.82;8.60;;;11.70;90.70;;;;;;5047906;28;20063;-62
2024/03/20 09:59:08;;;;;;;10.35;8.48;;;11.80;90.60;;;;;;5042764;28;20029;-63
2024/03/20 10:01:34;;;;;;;9.18;7.93;;;11.90;90.50;;;;;;5048062;28;20523;-63
2024/03/20 10:04:08;;;;;;;10.07;8.10;;;12.00;90.40;;;;;;5046359;28;20064;-60
2024/03/20 10:06:35;;;;;;;8.60;7.70;;;12.10;90.20;;;;;;5047975;28;20041;-62
2024/03/20 10:09:03;;;;;;;10.38;7.75;;;12.30;90.20;;;;;;5048258;28;20033;-61
2024/03/20 10:11:30;;;;;;;7.80;7.00;;;12.40;90.10;;;;;;5040308;28;20060;-62
2024/03/20 10:13:57;;;;;;;8.77;7.55;;;12.50;90.00;;;;;;5045961;28;20696;-62
2024/03/20 10:16:22;;;;;;;7.57;6.78;;;12.60;89.80;;;;;;5048185;28;20041;-62
2024/03/20 10:18:49;;;;;;;9.30;7.43;;;12.70;89.70;;;;;;5045260;28;20037;-61
2024/03/20 10:21:14;;;;;;;11.32;7.30;;;12.90;89.50;;;;;;5049202;28;20052;-60
2024/03/20 10:23:47;;;;;;;7.53;6.68;;;13.00;89.10;;;;;;5040629;28;20576;-61
2024/03/20 10:26:16;;;;;;;8.02;6.65;;;13.10;88.80;;;;;;5049341;28;20035;-59
2024/03/20 10:28:43;;;;;;;7.28;6.28;;;13.20;88.30;;;;;;5045338;28;20557;-62
2024/03/20 10:31:11;;;;;;;7.10;6.32;;;13.30;88.10;;;;;;5045499;28;20033;-62
2024/03/20 10:33:39;;;;;;;6.20;5.60;;;13.40;86.70;;;;;;5050201;28;20063;-60
2024/03/20 10:36:05;;;;;;;6.55;5.40;;;13.50;86.60;;;;;;5050800;28;20036;-62
2024/03/20 10:38:32;;;;;;;9.10;4.30;;;13.60;86.40;;;;;;5044157;28;20512;-61
2024/03/20 10:40:59;;;;;;;4.50;4.10;;;13.80;85.70;;;;;;5049873;28;20037;-62
2024/03/20 10:43:26;;;;;;;3.47;3.20;;;13.80;84.80;;;;;;5049415;28;20065;-62
2024/03/20 10:45:56;;;;;;;3.80;3.13;;;13.90;84.00;;;;;;5051646;28;20041;-62
2024/03/20 10:48:24;;;;;;;4.18;3.78;;;14.00;83.10;;;;;;5053498;28;20029;-63
2024/03/20 10:50:52;;;;;;;4.63;2.80;;;14.00;83.10;;;;;;5051131;28;20044;-62
2024/03/20 10:53:19;;;;;;;2.78;2.55;;;14.10;82.20;;;;;;5053124;28;20411;-64
2024/03/20 10:55:48;;;;;;;2.60;2.40;;;14.20;81.50;;;;;;5045914;28;20082;-64
2024/03/20 10:58:18;;;;;;;2.42;2.22;;;14.30;80.90;;;;;;5050676;28;20029;-64
2024/03/20 11:00:55;;;;;;;2.80;2.50;;;14.40;80.70;;;;;;5045505;28;20033;-63
2024/03/20 11:03:42;;;;;;;3.45;2.13;;;14.50;78.90;;;;;;5050836;28;20519;-63
2024/03/20 11:06:34;;;;;;;4.07;2.40;;;14.70;77.70;;;;;;5050457;28;20041;-63
2024/03/20 11:09:06;;;;;;;2.40;2.05;;;14.80;78.00;;;;;;5043293;28;20029;-63
2024/03/20 11:11:33;;;;;;;2.70;2.28;;;14.90;78.50;;;;;;5050351;28;20455;-63
2024/03/20 11:14:00;;;;;;;3.08;2.40;;;15.00;78.90;;;;;;5049137;28;20492;-63
2024/03/20 11:16:25;;;;;;;2.05;1.85;;;15.10;78.00;;;;;;5047293;28;20072;-63
2024/03/20 11:18:59;;;;;;;2.30;2.10;;;15.20;78.10;;;;;;5052852;28;20133;-62
2024/03/20 11:21:25;;;;;;;3.65;2.00;;;15.30;76.60;;;;;;5048308;28;20067;-63
2024/03/20 11:23:52;;;;;;;3.80;1.90;;;15.40;77.00;;;;;;5051282;28;20090;-62
2024/03/20 11:26:19;;;;;;;2.40;1.98;;;15.40;76.80;;;;;;5050774;28;20033;-63
2024/03/20 11:28:46;;;;;;;3.53;1.98;;;15.50;76.80;;;;;;5048385;28;20037;-63
2024/03/20 11:31:16;;;;;;;1.98;1.88;;;15.60;76.40;;;;;;5051705;28;20296;-63
2024/03/20 11:33:42;;;;;;;2.28;1.90;;;15.70;76.10;;;;;;5050000;28;20471;-62
2024/03/20 11:36:12;;;;;;;1.83;1.73;;;15.80;75.80;;;;;;5049093;28;20429;-61
2024/03/20 11:38:38;;;;;;;1.80;1.50;;;15.90;74.70;;;;;;5049686;28;20041;-63
2024/03/20 11:41:04;;;;;;;2.92;1.90;;;16.00;75.30;;;;;;5050664;28;20056;-61
2024/03/20 11:43:33;;;;;;;2.65;1.77;;;16.10;75.10;;;;;;5052497;28;20068;-61
2024/03/20 11:45:59;;;;;;;2.13;2.00;;;16.10;74.80;;;;;;5052605;28;20053;-64
2024/03/20 11:48:25;;;;;;;2.35;1.60;;;16.20;74.70;;;;;;5051578;28;20079;-61
2024/03/20 11:50:51;;;;;;;3.83;1.88;;;16.30;74.60;;;;;;5052527;28;20075;-61
2024/03/20 11:53:17;;;;;;;2.90;1.95;;;16.40;74.20;;;;;;5060449;28;20165;-62
2024/03/20 11:55:43;;;;;;;2.00;1.80;;;16.50;73.40;;;;;;5053460;28;20507;-62
2024/03/20 11:58:12;;;;;;;1.90;1.70;;;16.60;73.00;;;;;;5052981;28;20363;-62
2024/03/20 12:00:40;;;;;;;2.30;1.95;;;16.60;72.50;;;;;;5050101;28;20033;-63
2024/03/20 12:03:24;;;;;;;1.88;1.50;;;16.70;72.00;;;;;;5049571;28;20037;-62
2024/03/20 12:06:21;;;;;;;2.35;1.65;;;16.70;70.60;;;;;;5062242;28;20078;-62
2024/03/20 12:08:47;;;;;;;2.03;1.83;;;16.80;71.00;;;;;;5044109;28;20131;-62
2024/03/20 12:11:23;;;;;;;1.63;1.50;;;16.80;71.90;;;;;;5047985;28;20473;-60
2024/03/20 12:13:52;;;;;;;1.90;1.40;;;16.90;71.40;;;;;;5048199;28;20281;-62
2024/03/20 12:16:26;;;;;;;1.73;1.48;;;17.00;71.80;;;;;;5056238;28;20238;-61
2024/03/20 12:18:52;;;;;;;1.70;1.60;;;17.00;70.50;;;;;;5054467;28;20037;-61
2024/03/20 12:21:22;;;;;;;1.92;1.83;;;17.10;71.30;;;;;;5052648;28;20037;-61
2024/03/20 12:23:52;;;;;;;2.65;2.13;;;17.20;70.90;;;;;;5047898;28;20037;-61
2024/03/20 12:26:23;;;;;;;2.10;1.88;;;17.20;69.90;;;;;;5050177;28;20500;-61
2024/03/20 12:28:52;;;;;;;3.08;2.05;;;17.30;69.60;;;;;;5048130;28;20037;-60
2024/03/20 12:31:20;;;;;;;1.95;1.85;;;17.30;69.30;;;;;;5042284;28;20504;-64
2024/03/20 12:33:55;;;;;;;1.60;1.50;;;17.40;69.70;;;;;;5049358;28;20033;-62
2024/03/20 12:36:22;;;;;;;2.42;1.58;;;17.40;69.20;;;;;;5053435;28;20044;-62
2024/03/20 12:38:49;;;;;;;2.10;1.95;;;17.40;69.50;;;;;;5050658;28;20040;-61
2024/03/20 12:41:16;;;;;;;3.30;1.90;;;17.50;69.10;;;;;;5048688;28;20048;-62
2024/03/20 12:43:42;;;;;;;2.22;2.03;;;17.50;69.30;;;;;;5046358;28;20048;-63
2024/03/20 12:46:08;;;;;;;2.15;1.95;;;17.60;68.00;;;;;;5046187;28;20051;-60